Time,TemperatureF,DewpointF,PressureIn,WindDirection,WindDirectionDegrees,WindSpeedMPH,WindSpeedGustMPH,Humidity,HourlyPrecipIn,Conditions,Clouds,dailyrainin,SolarRadiationWatts/m^2,SoftwareType,DateUTC
2013-07-14 00:33:00,60.0,29.0,-100.00,East,91,4.0,5.0,31,0.00,,,0.00,1.000000,,2013-07-14 07:33:00,
2013-07-14 00:43:00,60.0,29.0,-100.00,East,91,4.0,5.0,31,0.00,,,0.00,1.000000,,2013-07-14 07:43:00,
2013-07-14 00:53:00,60.0,29.0,-100.00,East,91,4.0,5.0,31,0.00,,,0.00,1.000000,,2013-07-14 07:53:00,
2013-07-14 01:01:00,60.0,29.0,-100.00,East,91,4.0,5.0,31,0.00,,,0.00,1.000000,,2013-07-14 08:01:00,
2013-07-14 01:22:00,59.0,27.0,-100.00,ENE,57,3.0,6.0,29,0.00,,,0.00,1.000000,,2013-07-14 08:22:00,
2013-07-14 01:32:00,59.0,27.0,-100.00,ENE,57,3.0,6.0,29,0.00,,,0.00,1.000000,,2013-07-14 08:32:00,
2013-07-14 01:42:00,59.0,27.0,-100.00,ENE,57,3.0,6.0,29,0.00,,,0.00,1.000000,,2013-07-14 08:42:00,
2013-07-14 01:53:00,59.0,27.0,-100.00,ENE,57,3.0,6.0,29,0.00,,,0.00,1.000000,,2013-07-14 08:53:00,
2013-07-14 02:01:00,59.0,27.0,-100.00,ENE,57,3.0,6.0,29,0.00,,,0.00,1.000000,,2013-07-14 09:01:00,
2013-07-14 02:22:00,59.0,22.0,-100.00,East,93,3.0,5.0,24,0.00,,,0.00,1.000000,,2013-07-14 09:22:00,
2013-07-14 02:32:00,59.0,22.0,-100.00,East,93,3.0,5.0,24,0.00,,,0.00,1.000000,,2013-07-14 09:32:00,
2013-07-14 02:42:00,59.0,22.0,-100.00,East,93,3.0,5.0,24,0.00,,,0.00,1.000000,,2013-07-14 09:42:00,
2013-07-14 02:53:00,59.0,22.0,-100.00,East,93,3.0,5.0,24,0.00,,,0.00,1.000000,,2013-07-14 09:53:00,
2013-07-14 03:01:00,59.0,22.0,-100.00,East,93,3.0,5.0,24,0.00,,,0.00,1.000000,,2013-07-14 10:01:00,
2013-07-14 03:22:00,58.0,24.0,-100.00,SSE,151,1.0,4.0,27,0.00,,,0.00,1.000000,,2013-07-14 10:22:00,
2013-07-14 03:32:00,58.0,24.0,-100.00,SSE,151,1.0,4.0,27,0.00,,,0.00,1.000000,,2013-07-14 10:32:00,
2013-07-14 03:42:00,58.0,24.0,-100.00,SSE,151,1.0,4.0,27,0.00,,,0.00,1.000000,,2013-07-14 10:42:00,
2013-07-14 03:53:00,58.0,24.0,-100.00,SSE,151,1.0,4.0,27,0.00,,,0.00,1.000000,,2013-07-14 10:53:00,
2013-07-14 04:02:00,55.0,23.0,-100.00,East,98,2.0,3.0,28,0.00,,,0.00,1.000000,,2013-07-14 11:02:00,
2013-07-14 04:22:00,55.0,23.0,-100.00,East,98,2.0,3.0,28,0.00,,,0.00,1.000000,,2013-07-14 11:22:00,
2013-07-14 04:32:00,55.0,23.0,-100.00,East,98,2.0,3.0,28,0.00,,,0.00,1.000000,,2013-07-14 11:32:00,
2013-07-14 04:43:00,55.0,23.0,-100.00,East,98,2.0,3.0,28,0.00,,,0.00,1.000000,,2013-07-14 11:43:00,
2013-07-14 04:53:00,55.0,23.0,-100.00,East,98,2.0,3.0,28,0.00,,,0.00,1.000000,,2013-07-14 11:53:00,
2013-07-14 05:33:00,53.0,22.0,-100.00,SSW,213,3.0,5.0,30,-99.99,,,0.00,1.000000,,2013-07-14 12:33:00,
2013-07-14 05:43:00,53.0,22.0,-100.00,SSW,213,3.0,5.0,30,-99.99,,,0.00,1.000000,,2013-07-14 12:43:00,
2013-07-14 05:53:00,53.0,22.0,-100.00,SSW,213,3.0,5.0,30,-99.99,,,0.00,1.000000,,2013-07-14 12:53:00,
2013-07-14 06:01:00,53.0,22.0,-100.00,SSW,213,3.0,5.0,30,-99.99,,,0.00,1.000000,,2013-07-14 13:01:00,
2013-07-14 06:32:00,54.0,23.0,-100.00,ESE,112,2.0,6.0,30,0.00,,,0.00,8.000000,,2013-07-14 13:32:00,
2013-07-14 06:42:00,54.0,23.0,-100.00,ESE,112,2.0,6.0,30,0.00,,,0.00,8.000000,,2013-07-14 13:42:00,
2013-07-14 06:53:00,54.0,23.0,-100.00,ESE,112,2.0,6.0,30,0.00,,,0.00,8.000000,,2013-07-14 13:53:00,
2013-07-14 07:01:00,54.0,23.0,-100.00,ESE,112,2.0,6.0,30,0.00,,,0.00,8.000000,,2013-07-14 14:01:00,
2013-07-14 08:32:00,63.0,29.0,-100.00,West,259,5.0,8.0,27,-99.99,,,0.00,278.000000,,2013-07-14 15:32:00,
2013-07-14 08:42:00,63.0,29.0,-100.00,West,259,5.0,8.0,27,-99.99,,,0.00,278.000000,,2013-07-14 15:42:00,
2013-07-14 08:53:00,63.0,29.0,-100.00,West,259,5.0,8.0,27,-99.99,,,0.00,278.000000,,2013-07-14 15:53:00,
2013-07-14 09:01:00,63.0,29.0,-100.00,West,259,5.0,8.0,27,-99.99,,,0.00,278.000000,,2013-07-14 16:01:00,
2013-07-14 09:02:00,69.0,31.0,-100.00,West,265,4.0,6.0,24,0.00,,,0.00,464.000000,,2013-07-14 16:02:00,
2013-07-14 09:22:00,69.0,31.0,-100.00,West,265,4.0,6.0,24,0.00,,,0.00,464.000000,,2013-07-14 16:22:00,
2013-07-14 09:32:00,69.0,31.0,-100.00,West,265,4.0,6.0,24,0.00,,,0.00,464.000000,,2013-07-14 16:32:00,
2013-07-14 09:43:00,69.0,31.0,-100.00,West,265,4.0,6.0,24,0.00,,,0.00,464.000000,,2013-07-14 16:43:00,
2013-07-14 09:53:00,69.0,31.0,-100.00,West,265,4.0,6.0,24,0.00,,,0.00,464.000000,,2013-07-14 16:53:00,
2013-07-14 10:22:00,73.0,31.0,-100.00,West,261,4.0,7.0,21,0.00,,,0.00,639.000000,,2013-07-14 17:22:00,
2013-07-14 10:32:00,73.0,31.0,-100.00,West,261,4.0,7.0,21,0.00,,,0.00,639.000000,,2013-07-14 17:32:00,
2013-07-14 10:43:00,73.0,31.0,-100.00,West,261,4.0,7.0,21,0.00,,,0.00,639.000000,,2013-07-14 17:43:00,
2013-07-14 10:53:00,73.0,31.0,-100.00,West,261,4.0,7.0,21,0.00,,,0.00,639.000000,,2013-07-14 17:53:00,
2013-07-14 11:01:00,73.0,31.0,-100.00,West,261,4.0,7.0,21,0.00,,,0.00,639.000000,,2013-07-14 18:01:00,
2013-07-14 11:22:00,77.0,32.0,-100.00,NNW,333,4.0,9.0,19,0.00,,,0.00,790.000000,,2013-07-14 18:22:00,
2013-07-14 11:32:00,77.0,32.0,-100.00,NNW,333,4.0,9.0,19,0.00,,,0.00,790.000000,,2013-07-14 18:32:00,
2013-07-14 11:42:00,77.0,32.0,-100.00,NNW,333,4.0,9.0,19,0.00,,,0.00,790.000000,,2013-07-14 18:42:00,
2013-07-14 11:52:00,77.0,32.0,-100.00,NNW,333,4.0,9.0,19,0.00,,,0.00,790.000000,,2013-07-14 18:52:00,
2013-07-14 12:01:00,77.0,32.0,-100.00,NNW,333,4.0,9.0,19,0.00,,,0.00,790.000000,,2013-07-14 19:01:00,
2013-07-14 12:22:00,80.0,31.0,-100.00,NE,43,5.0,11.0,17,0.00,,,0.00,902.000000,,2013-07-14 19:22:00,
2013-07-14 12:32:00,80.0,31.0,-100.00,NE,43,5.0,11.0,17,0.00,,,0.00,902.000000,,2013-07-14 19:32:00,
2013-07-14 12:43:00,80.0,31.0,-100.00,NE,43,5.0,11.0,17,0.00,,,0.00,902.000000,,2013-07-14 19:43:00,
2013-07-14 12:53:00,80.0,31.0,-100.00,NE,43,5.0,11.0,17,0.00,,,0.00,902.000000,,2013-07-14 19:53:00,
2013-07-14 13:01:00,80.0,31.0,-100.00,NE,43,5.0,11.0,17,0.00,,,0.00,902.000000,,2013-07-14 20:01:00,
2013-07-14 13:22:00,83.0,32.0,-100.00,North,354,7.0,14.0,16,0.00,,,0.00,962.000000,,2013-07-14 20:22:00,
2013-07-14 13:32:00,83.0,32.0,-100.00,North,354,7.0,14.0,16,0.00,,,0.00,962.000000,,2013-07-14 20:32:00,
2013-07-14 13:43:00,83.0,32.0,-100.00,North,354,7.0,14.0,16,0.00,,,0.00,962.000000,,2013-07-14 20:43:00,
2013-07-14 13:53:00,83.0,32.0,-100.00,North,354,7.0,14.0,16,0.00,,,0.00,962.000000,,2013-07-14 20:53:00,
2013-07-14 14:01:00,83.0,32.0,-100.00,North,354,7.0,14.0,16,0.00,,,0.00,962.000000,,2013-07-14 21:01:00,
2013-07-14 14:32:00,85.0,34.0,-100.00,NNW,330,7.0,13.0,16,0.00,,,0.00,970.000000,,2013-07-14 21:32:00,
2013-07-14 14:43:00,85.0,34.0,-100.00,NNW,330,7.0,13.0,16,0.00,,,0.00,970.000000,,2013-07-14 21:43:00,
2013-07-14 14:52:00,85.0,34.0,-100.00,NNW,330,7.0,13.0,16,0.00,,,0.00,970.000000,,2013-07-14 21:52:00,
2013-07-14 15:01:00,85.0,34.0,-100.00,NNW,330,7.0,13.0,16,0.00,,,0.00,970.000000,,2013-07-14 22:01:00,
2013-07-14 15:32:00,88.0,35.0,-100.00,North,355,8.0,15.0,15,0.00,,,0.00,933.000000,,2013-07-14 22:32:00,
2013-07-14 15:42:00,88.0,35.0,-100.00,North,355,8.0,15.0,15,0.00,,,0.00,933.000000,,2013-07-14 22:42:00,
2013-07-14 15:53:00,88.0,35.0,-100.00,North,355,8.0,15.0,15,0.00,,,0.00,933.000000,,2013-07-14 22:53:00,
2013-07-14 16:01:00,88.0,35.0,-100.00,North,355,8.0,15.0,15,0.00,,,0.00,933.000000,,2013-07-14 23:01:00,
2013-07-14 16:02:00,88.0,33.0,-100.00,NW,307,7.0,16.0,14,0.00,,,0.00,845.000000,,2013-07-14 23:02:00,
2013-07-14 16:32:00,88.0,33.0,-100.00,NW,307,7.0,16.0,14,0.00,,,0.00,845.000000,,2013-07-14 23:32:00,
2013-07-14 16:42:00,88.0,33.0,-100.00,NW,307,7.0,16.0,14,0.00,,,0.00,845.000000,,2013-07-14 23:42:00,
2013-07-14 16:53:00,88.0,33.0,-100.00,NW,307,7.0,16.0,14,0.00,,,0.00,845.000000,,2013-07-14 23:53:00,
2013-07-14 17:22:00,88.0,33.0,-100.00,North,3,9.0,18.0,14,0.00,,,0.00,711.000000,,2013-07-15 00:22:00,
2013-07-14 17:32:00,88.0,33.0,-100.00,North,3,9.0,18.0,14,0.00,,,0.00,711.000000,,2013-07-15 00:32:00,
2013-07-14 17:43:00,88.0,33.0,-100.00,North,3,9.0,18.0,14,0.00,,,0.00,711.000000,,2013-07-15 00:43:00,
2013-07-14 17:53:00,88.0,33.0,-100.00,North,3,9.0,18.0,14,0.00,,,0.00,711.000000,,2013-07-15 00:53:00,
2013-07-14 18:01:00,88.0,33.0,-100.00,North,3,9.0,18.0,14,0.00,,,0.00,711.000000,,2013-07-15 01:01:00,
2013-07-14 18:02:00,88.0,33.0,-100.00,NNW,343,8.0,18.0,14,0.00,,,0.00,550.000000,,2013-07-15 01:02:00,
2013-07-14 18:32:00,88.0,33.0,-100.00,NNW,343,8.0,18.0,14,0.00,,,0.00,550.000000,,2013-07-15 01:32:00,
2013-07-14 18:43:00,88.0,33.0,-100.00,NNW,343,8.0,18.0,14,0.00,,,0.00,550.000000,,2013-07-15 01:43:00,
2013-07-14 18:53:00,88.0,33.0,-100.00,NNW,343,8.0,18.0,14,0.00,,,0.00,550.000000,,2013-07-15 01:53:00,
2013-07-14 19:22:00,87.0,32.0,-100.00,NNW,346,7.0,14.0,14,0.00,,,0.00,370.000000,,2013-07-15 02:22:00,
2013-07-14 19:32:00,87.0,32.0,-100.00,NNW,346,7.0,14.0,14,0.00,,,0.00,370.000000,,2013-07-15 02:32:00,
2013-07-14 19:42:00,87.0,32.0,-100.00,NNW,346,7.0,14.0,14,0.00,,,0.00,370.000000,,2013-07-15 02:42:00,
2013-07-14 19:53:00,87.0,32.0,-100.00,NNW,346,7.0,14.0,14,0.00,,,0.00,370.000000,,2013-07-15 02:53:00,
2013-07-14 20:01:00,87.0,32.0,-100.00,NNW,346,7.0,14.0,14,0.00,,,0.00,370.000000,,2013-07-15 03:01:00,
2013-07-14 20:22:00,82.0,41.0,-100.00,NNW,339,5.0,15.0,23,0.00,,,0.00,186.000000,,2013-07-15 03:22:00,
2013-07-14 20:32:00,82.0,41.0,-100.00,NNW,339,5.0,15.0,23,0.00,,,0.00,186.000000,,2013-07-15 03:32:00,
2013-07-14 20:43:00,82.0,41.0,-100.00,NNW,339,5.0,15.0,23,0.00,,,0.00,186.000000,,2013-07-15 03:43:00,
2013-07-14 20:53:00,82.0,41.0,-100.00,NNW,339,5.0,15.0,23,0.00,,,0.00,186.000000,,2013-07-15 03:53:00,
2013-07-14 21:01:00,82.0,41.0,-100.00,NNW,339,5.0,15.0,23,0.00,,,0.00,186.000000,,2013-07-15 04:01:00,
2013-07-14 21:02:00,75.0,41.0,-100.00,NNW,339,5.0,12.0,30,0.00,,,0.00,29.000000,,2013-07-15 04:02:00,
2013-07-14 21:33:00,75.0,41.0,-100.00,NNW,339,5.0,12.0,30,0.00,,,0.00,29.000000,,2013-07-15 04:33:00,
2013-07-14 21:42:00,75.0,41.0,-100.00,NNW,339,5.0,12.0,30,0.00,,,0.00,29.000000,,2013-07-15 04:42:00,
2013-07-14 21:53:00,75.0,41.0,-100.00,NNW,339,5.0,12.0,30,0.00,,,0.00,29.000000,,2013-07-15 04:53:00,
2013-07-14 22:02:00,71.0,41.0,-100.00,North,5,8.0,11.0,34,0.00,,,0.00,1.000000,,2013-07-15 05:02:00,
2013-07-14 22:32:00,71.0,41.0,-100.00,North,5,8.0,11.0,34,0.00,,,0.00,1.000000,,2013-07-15 05:32:00,
2013-07-14 22:43:00,71.0,41.0,-100.00,North,5,8.0,11.0,34,0.00,,,0.00,1.000000,,2013-07-15 05:43:00,
2013-07-14 22:53:00,71.0,41.0,-100.00,North,5,8.0,11.0,34,0.00,,,0.00,1.000000,,2013-07-15 05:53:00,
2013-07-14 23:22:00,67.0,38.0,-100.00,NNE,32,7.0,13.0,35,0.00,,,0.00,1.000000,,2013-07-15 06:22:00,
2013-07-14 23:32:00,67.0,38.0,-100.00,NNE,32,7.0,13.0,35,0.00,,,0.00,1.000000,,2013-07-15 06:32:00,
2013-07-14 23:42:00,67.0,38.0,-100.00,NNE,32,7.0,13.0,35,0.00,,,0.00,1.000000,,2013-07-15 06:42:00,
2013-07-14 23:53:00,67.0,38.0,-100.00,NNE,32,7.0,13.0,35,0.00,,,0.00,1.000000,,2013-07-15 06:53:00,